Walton on the Naze, United Kingdom
Current Conditions -  °F | °C
As of 3:50 AM on Tuesday 23 Dec 2014 (Local Time) from EGUW Reporting Station
Overcast Overcast  
Wind Chill: 11°   Ceiling: 2400
Heat Index: 11°   Visibility: 6mi
Dew Point:   Wind: 22mph
Humidity: 71%   Direction: 250°WSW
Pressure: 29.97"   Gusts: NA
Location:  51.85°N, 1.27°E
Report Text: EGUW 230350Z AUTO 25019KT 9999 OVC024/// 11/06 Q1015
Loading
Personal Weather Stations






























Interactive Weather Map New forecast layout! Learn more

10-Day Weather Forecast

Advertisements
Track Severe Weather on mobile